createdAt,value
2023-04-02T00:01:01.990Z,96210.09
2023-04-02T00:03:59.316Z,96211.13
2023-04-02T00:06:46.400Z,96212.16
2023-04-02T00:09:36.774Z,96214.00
2023-04-02T00:12:24.032Z,96212.34
2023-04-02T00:15:12.603Z,96213.38
2023-04-02T00:18:00.006Z,96218.69
2023-04-02T00:20:50.943Z,96216.28
2023-04-02T00:23:42.707Z,96218.94
2023-04-02T00:26:36.768Z,96223.44
2023-04-02T00:29:23.642Z,96228.75
2023-04-02T00:32:18.004Z,96222.81
2023-04-02T00:35:13.639Z,96232.63
2023-04-02T00:38:00.667Z,96226.50
2023-04-02T00:40:47.636Z,96226.94
2023-04-02T00:43:38.419Z,96232.03
2023-04-02T00:46:32.198Z,96233.06
2023-04-02T00:49:32.678Z,96229.59
2023-04-02T00:52:25.031Z,96226.09
2023-04-02T00:55:38.997Z,96234.28
2023-04-02T00:58:35.067Z,96234.50
2023-04-02T01:01:28.417Z,96230.22
2023-04-02T01:04:28.837Z,96235.31
2023-04-02T01:07:15.949Z,96243.53
2023-04-02T01:10:28.994Z,96250.69
2023-04-02T01:13:57.886Z,96250.88
2023-04-02T01:16:47.511Z,96253.53
2023-04-02T01:19:46.482Z,96254.56
2023-04-02T01:23:02.525Z,96245.97
2023-04-02T01:26:05.525Z,96248.84
2023-04-02T01:29:02.153Z,96259.47
2023-04-02T01:31:49.905Z,96250.88
2023-04-02T01:34:37.900Z,96257.00
2023-04-02T01:37:46.761Z,96264.19
2023-04-02T01:40:51.422Z,96265.00
2023-04-02T01:43:53.076Z,96264.19
2023-04-02T01:46:44.905Z,96271.34
2023-04-02T01:49:31.787Z,96276.06
2023-04-02T01:52:26.974Z,96274.41
2023-04-02T01:55:17.642Z,96270.13
2023-04-02T01:58:04.727Z,96274.41
2023-04-02T02:01:00.103Z,96272.56
2023-04-02T02:03:47.147Z,96277.06
2023-04-02T02:06:33.994Z,96276.25
2023-04-02T02:09:24.150Z,96283.41
2023-04-02T02:12:15.323Z,96285.28
2023-04-02T02:15:02.496Z,96285.28
2023-04-02T02:17:49.949Z,96283.66
2023-04-02T02:20:38.971Z,96296.09
2023-04-02T02:23:28.823Z,96296.31
2023-04-02T02:26:16.080Z,96291.81
2023-04-02T02:29:04.173Z,96306.13
2023-04-02T02:31:54.098Z,96305.31
2023-04-02T02:34:47.567Z,96309.81
2023-04-02T02:37:41.016Z,96306.31
2023-04-02T02:40:34.421Z,96311.66
2023-04-02T02:43:21.382Z,96309.19
2023-04-02T02:46:11.292Z,96312.91
2023-04-02T02:48:59.819Z,96305.72
2023-04-02T02:51:52.535Z,96314.75
2023-04-02T02:54:43.015Z,96319.22
2023-04-02T02:57:33.112Z,96323.53
2023-04-02T03:00:20.534Z,96324.53
2023-04-02T03:03:15.359Z,96329.03
2023-04-02T03:06:08.505Z,96325.56
2023-04-02T03:09:05.090Z,96327.41
2023-04-02T03:12:22.706Z,96337.22
2023-04-02T03:15:27.923Z,96339.25
2023-04-02T03:18:33.473Z,96338.44
2023-04-02T03:21:37.335Z,96341.09
2023-04-02T03:24:35.873Z,96344.78
2023-04-02T03:27:26.720Z,96343.97
2023-04-02T03:30:29.400Z,96353.81
2023-04-02T03:33:28.779Z,96360.13
2023-04-02T03:36:35.712Z,96357.47
2023-04-02T03:39:42.816Z,96356.88
2023-04-02T03:42:39.374Z,96359.53
2023-04-02T03:45:41.785Z,96359.69
2023-04-02T03:48:39.322Z,96362.38
2023-04-02T03:51:59.954Z,96369.34
2023-04-02T03:54:53.129Z,96369.53
2023-04-02T03:58:04.477Z,96366.28
2023-04-02T04:01:12.470Z,96371.59
2023-04-02T04:04:06.987Z,96369.94
2023-04-02T04:06:56.613Z,96379.75
2023-04-02T04:09:45.971Z,96383.22
2023-04-02T04:12:35.915Z,96384.47
2023-04-02T04:15:30.279Z,96386.09
2023-04-02T04:18:50.075Z,96394.06
2023-04-02T04:21:39.963Z,96396.94
2023-04-02T04:24:27.542Z,96400.59
2023-04-02T04:27:34.654Z,96403.25
2023-04-02T04:30:42.462Z,96401.63
2023-04-02T04:33:34.638Z,96410.41
2023-04-02T04:36:27.817Z,96410.63
2023-04-02T04:39:18.843Z,96421.25
2023-04-02T04:42:06.793Z,96426.56
2023-04-02T04:44:58.242Z,96428.59
2023-04-02T04:47:54.024Z,96428.59
2023-04-02T04:50:52.905Z,96434.72
2023-04-02T04:53:48.491Z,96441.88
2023-04-02T04:56:35.342Z,96441.88
2023-04-02T04:59:32.442Z,96443.91
2023-04-02T05:02:26.714Z,96447.38
2023-04-02T05:05:19.651Z,96447.38
2023-04-02T05:08:28.285Z,96450.22
2023-04-02T05:11:23.428Z,96458.19
2023-04-02T05:14:25.715Z,96458.19
2023-04-02T05:17:46.576Z,96461.06
2023-04-02T05:20:40.745Z,96468.03
2023-04-02T05:23:30.078Z,96471.72
2023-04-02T05:26:25.783Z,96471.72
2023-04-02T05:29:21.560Z,96465.75
2023-04-02T05:32:17.320Z,96472.72
2023-04-02T05:35:06.622Z,96478.03
2023-04-02T05:37:53.546Z,96478.88
2023-04-02T05:40:44.584Z,96482.53
2023-04-02T05:43:33.670Z,96491.34
2023-04-02T05:46:27.397Z,96494.19
2023-04-02T05:49:23.743Z,96502.97
2023-04-02T05:52:32.643Z,96494.19
2023-04-02T05:55:19.829Z,96494.38
2023-04-02T05:58:34.596Z,96503.34
2023-04-02T06:01:30.929Z,96511.31
2023-04-02T06:04:26.171Z,96513.00
2023-04-02T06:07:24.341Z,96515.00
2023-04-02T06:10:18.514Z,96519.31
2023-04-02T06:13:08.949Z,96521.97
2023-04-02T06:15:56.333Z,96523.81
2023-04-02T06:18:43.666Z,96524.00
2023-04-02T06:21:31.745Z,96531.97
2023-04-02T06:24:22.993Z,96529.53
2023-04-02T06:27:12.039Z,96539.13
2023-04-02T06:30:03.641Z,96540.16
2023-04-02T06:32:50.838Z,96550.78
2023-04-02T06:35:40.718Z,96544.63
2023-04-02T06:38:30.084Z,96541.97
2023-04-02T06:41:22.095Z,96544.84
2023-04-02T06:44:19.903Z,96552.59
2023-04-02T06:47:51.602Z,96562.25
2023-04-02T06:51:02.242Z,96566.75
2023-04-02T06:53:50.039Z,96578.19
2023-04-02T06:56:42.537Z,96570.38
2023-04-02T06:59:29.384Z,96576.72
2023-04-02T07:02:35.945Z,96572.06
2023-04-02T07:05:23.400Z,96587.16
2023-04-02T07:08:10.295Z,96586.16
2023-04-02T07:10:57.120Z,96592.69
2023-04-02T07:13:44.581Z,96594.31
2023-04-02T07:16:33.074Z,96591.84
2023-04-02T07:19:22.042Z,96598.00
2023-04-02T07:22:08.872Z,96604.94
2023-04-02T07:24:55.917Z,96614.56
2023-04-02T07:27:42.766Z,96613.72
2023-04-02T07:30:29.875Z,96618.22
2023-04-02T07:33:18.995Z,96619.88
2023-04-02T07:36:06.285Z,96614.56
2023-04-02T07:38:53.211Z,96626.84
2023-04-02T07:41:57.040Z,96630.31
2023-04-02T07:44:43.904Z,96633.78
2023-04-02T07:47:30.979Z,96639.09
2023-04-02T07:50:19.085Z,96634.00
2023-04-02T07:53:07.318Z,96642.56
2023-04-02T07:55:54.479Z,96646.25
2023-04-02T07:58:42.239Z,96647.06
2023-04-02T08:01:29.797Z,96653.19
2023-04-02T08:04:21.973Z,96658.34
2023-04-02T08:07:08.883Z,96656.69
2023-04-02T08:09:55.698Z,96667.13
2023-04-02T08:12:45.422Z,96659.97
2023-04-02T08:15:32.327Z,96666.09
2023-04-02T08:18:22.597Z,96669.56
2023-04-02T08:21:10.660Z,96670.41
2023-04-02T08:23:57.584Z,96670.22
2023-04-02T08:26:46.373Z,96677.97
2023-04-02T08:29:34.421Z,96676.13
2023-04-02T08:32:23.083Z,96682.94
2023-04-02T08:35:12.792Z,96685.38
2023-04-02T08:38:01.483Z,96687.88
2023-04-02T08:40:54.802Z,96700.13
2023-04-02T08:44:00.629Z,96698.28
2023-04-02T08:47:04.452Z,96698.13
2023-04-02T08:49:57.979Z,96700.56
2023-04-02T08:52:46.192Z,96710.19
2023-04-02T08:55:42.980Z,96711.84
2023-04-02T08:58:43.795Z,96716.94
2023-04-02T09:01:37.109Z,96719.44
2023-04-02T09:04:25.702Z,96729.03
2023-04-02T09:07:14.498Z,96729.03
2023-04-02T09:10:01.782Z,96731.31
2023-04-02T09:12:52.898Z,96734.16
2023-04-02T09:15:40.665Z,96732.94
2023-04-02T09:18:31.032Z,96742.56
2023-04-02T09:21:21.035Z,96752.38
2023-04-02T09:24:12.432Z,96762.00
2023-04-02T09:26:59.404Z,96775.28
2023-04-02T09:29:48.571Z,96778.97
2023-04-02T09:32:51.855Z,96778.16
2023-04-02T09:35:50.913Z,96793.06
2023-04-02T09:38:37.686Z,96794.91
2023-04-02T09:41:28.670Z,96795.72
2023-04-02T09:44:26.762Z,96802.72
2023-04-02T09:47:26.518Z,96809.84
2023-04-02T09:50:23.377Z,96815.16
2023-04-02T09:53:30.786Z,96817.81
2023-04-02T09:56:25.607Z,96823.13
2023-04-02T09:59:16.935Z,96829.09
2023-04-02T10:02:05.586Z,96824.59
2023-04-02T10:04:52.725Z,96828.91
2023-04-02T10:07:42.978Z,96838.53
2023-04-02T10:10:33.453Z,96843.84
2023-04-02T10:13:32.568Z,96846.31
2023-04-02T10:16:26.962Z,96853.25
2023-04-02T10:19:32.524Z,96856.75
2023-04-02T10:22:21.635Z,96860.25
2023-04-02T10:25:14.956Z,96861.88
2023-04-02T10:28:17.399Z,96867.19
2023-04-02T10:31:20.133Z,96867.19
2023-04-02T10:34:13.073Z,96878.66
2023-04-02T10:37:08.321Z,96874.16
2023-04-02T10:40:01.330Z,96887.44
2023-04-02T10:43:03.483Z,96883.78
2023-04-02T10:45:54.749Z,96883.78
2023-04-02T10:49:23.662Z,96900.56
2023-04-02T10:52:10.457Z,96906.72
2023-04-02T10:55:20.540Z,96907.53
2023-04-02T10:58:23.725Z,96910.19
2023-04-02T11:01:22.231Z,96917.16
2023-04-02T11:04:17.673Z,96923.28
2023-04-02T11:07:15.118Z,96924.94
2023-04-02T11:10:02.135Z,96931.91
2023-04-02T11:13:09.313Z,96931.69
2023-04-02T11:15:56.424Z,96939.69
2023-04-02T11:18:44.885Z,96937.84
2023-04-02T11:22:00.223Z,96945.81
2023-04-02T11:24:49.687Z,96950.16
2023-04-02T11:27:36.736Z,96954.44
2023-04-02T11:30:26.288Z,96961.41
2023-04-02T11:33:44.779Z,96968.38
2023-04-02T11:36:50.842Z,96964.88
2023-04-02T11:39:56.728Z,96975.53
2023-04-02T11:42:50.057Z,96974.69
2023-04-02T11:45:52.974Z,96990.66
2023-04-02T11:48:40.890Z,96994.34
2023-04-02T11:51:31.247Z,96988.22
2023-04-02T11:54:28.441Z,96994.53
2023-04-02T11:57:33.310Z,96995.38
2023-04-02T12:00:44.579Z,97005.19
2023-04-02T12:03:55.816Z,97002.53
2023-04-02T12:07:20.626Z,97009.47
2023-04-02T12:10:19.178Z,97014.81
2023-04-02T12:13:18.156Z,97025.44
2023-04-02T12:16:06.698Z,97029.13
2023-04-02T12:18:56.586Z,97033.22
2023-04-02T12:21:47.338Z,97029.56
2023-04-02T12:24:34.317Z,97035.72
2023-04-02T12:27:27.714Z,97039.81
2023-04-02T12:30:22.803Z,97046.97
2023-04-02T12:33:16.771Z,97048.63
2023-04-02T12:36:06.790Z,97053.97
2023-04-02T12:38:58.171Z,97053.09
2023-04-02T12:41:45.011Z,97061.94
2023-04-02T12:44:32.600Z,97058.44
2023-04-02T12:47:19.578Z,97061.94
2023-04-02T12:50:07.265Z,97072.38
2023-04-02T12:52:55.632Z,97065.22
2023-04-02T12:55:47.444Z,97069.72
2023-04-02T12:58:40.060Z,97074.00
2023-04-02T13:01:29.383Z,97075.69
2023-04-02T13:04:16.526Z,97077.50
2023-04-02T13:07:03.558Z,97074.00
2023-04-02T13:09:51.884Z,97075.69
2023-04-02T13:12:40.473Z,97075.47
2023-04-02T13:15:31.988Z,97084.47
2023-04-02T13:18:23.048Z,97088.78
2023-04-02T13:21:19.472Z,97090.63
2023-04-02T13:24:16.945Z,97094.31
2023-04-02T13:27:04.089Z,97095.94
2023-04-02T13:29:51.049Z,97101.28
2023-04-02T13:32:39.101Z,97102.28
2023-04-02T13:35:27.250Z,97104.09
2023-04-02T13:38:14.143Z,97113.09
2023-04-02T13:41:01.085Z,97118.41
2023-04-02T13:43:49.367Z,97119.25
2023-04-02T13:46:36.292Z,97118.41
2023-04-02T13:49:24.158Z,97124.75
2023-04-02T13:52:14.997Z,97120.47
2023-04-02T13:55:02.213Z,97124.75
2023-04-02T13:57:50.374Z,97133.75
2023-04-02T14:00:37.880Z,97133.75
2023-04-02T14:03:24.881Z,97137.25
2023-04-02T14:06:18.636Z,97145.41
2023-04-02T14:09:15.703Z,97142.72
2023-04-02T14:12:18.204Z,97146.41
2023-04-02T14:15:27.478Z,97153.56
2023-04-02T14:18:52.840Z,97156.22
2023-04-02T14:21:57.913Z,97159.91
2023-04-02T14:24:57.632Z,97165.22
2023-04-02T14:28:06.446Z,97167.91
2023-04-02T14:31:15.497Z,97167.91
2023-04-02T14:34:03.715Z,97165.41
2023-04-02T14:36:56.355Z,97164.56
2023-04-02T14:40:04.042Z,97170.91
2023-04-02T14:43:01.394Z,97174.41
2023-04-02T14:45:59.777Z,97178.91
2023-04-02T14:48:54.385Z,97181.56
2023-04-02T14:51:49.933Z,97183.41
2023-04-02T14:54:39.612Z,97193.19
2023-04-02T14:57:31.386Z,97196.03
2023-04-02T15:00:31.785Z,97203.00
2023-04-02T15:03:23.699Z,97202.38
2023-04-02T15:06:13.096Z,97204.03
2023-04-02T15:09:11.962Z,97211.19
2023-04-02T15:12:11.148Z,97211.34
2023-04-02T15:15:40.619Z,97216.66
2023-04-02T15:18:27.984Z,97221.16
2023-04-02T15:21:23.060Z,97225.66
2023-04-02T15:24:39.287Z,97240.81
2023-04-02T15:27:34.254Z,97240.16
2023-04-02T15:30:37.311Z,97241.00
2023-04-02T15:33:24.370Z,97251.81
2023-04-02T15:36:32.629Z,97248.31
2023-04-02T15:39:31.483Z,97253.84
2023-04-02T15:42:44.091Z,97257.31
2023-04-02T15:45:40.064Z,97256.66
2023-04-02T15:48:33.048Z,97263.00
2023-04-02T15:51:23.357Z,97266.47
2023-04-02T15:54:16.488Z,97273.81
2023-04-02T15:57:21.924Z,97281.97
2023-04-02T16:00:22.245Z,97284.84
2023-04-02T16:03:27.601Z,97294.66
2023-04-02T16:06:25.301Z,97286.00
2023-04-02T16:09:23.285Z,97291.31
2023-04-02T16:12:20.648Z,97295.81
2023-04-02T16:15:23.654Z,97292.69
2023-04-02T16:18:33.696Z,97305.19
2023-04-02T16:21:23.669Z,97306.16
2023-04-02T16:24:13.349Z,97310.66
2023-04-02T16:27:26.221Z,97321.50
2023-04-02T16:30:30.004Z,97323.50
2023-04-02T16:34:24.839Z,97336.97
2023-04-02T16:37:41.995Z,97338.00
2023-04-02T16:41:07.070Z,97353.28
2023-04-02T16:44:15.352Z,97355.28
2023-04-02T16:47:08.229Z,97368.75
2023-04-02T16:50:13.411Z,97355.78
2023-04-02T16:53:33.907Z,97373.75
2023-04-02T16:56:39.436Z,97376.44
2023-04-02T16:59:43.732Z,97379.44
2023-04-02T17:02:46.067Z,97397.22
2023-04-02T17:05:57.396Z,97402.88
2023-04-02T17:09:13.762Z,97408.56
2023-04-02T17:12:13.672Z,97409.56
2023-04-02T17:15:20.905Z,97412.38
2023-04-02T17:18:18.372Z,97415.94
2023-04-02T17:21:08.531Z,97429.97
2023-04-02T17:23:58.528Z,97433.00
2023-04-02T17:26:48.662Z,97438.59
2023-04-02T17:29:38.668Z,97442.56
2023-04-02T17:32:36.902Z,97459.09
2023-04-02T17:35:44.036Z,97451.44
2023-04-02T17:39:03.333Z,97460.03
2023-04-02T17:41:55.910Z,97463.81
2023-04-02T17:44:54.940Z,97467.63
2023-04-02T17:47:58.968Z,97485.84
2023-04-02T17:50:54.612Z,97480.53
2023-04-02T17:54:21.233Z,97493.81
2023-04-02T17:57:31.254Z,97496.47
2023-04-02T18:01:02.825Z,97503.59
2023-04-02T18:04:08.246Z,97515.25
2023-04-02T18:07:21.647Z,97518.91
2023-04-02T18:10:27.390Z,97524.22
2023-04-02T18:13:28.330Z,97543.78
2023-04-02T18:16:30.487Z,97531.84
2023-04-02T18:19:30.931Z,97551.09
2023-04-02T18:22:46.716Z,97549.59
2023-04-02T18:25:48.714Z,97555.09
2023-04-02T18:29:06.500Z,97555.25
2023-04-02T18:32:24.516Z,97565.06
2023-04-02T18:35:33.601Z,97564.22
2023-04-02T18:38:36.006Z,97575.03
2023-04-02T18:41:41.994Z,97580.69
2023-04-02T18:44:49.094Z,97589.78
2023-04-02T18:47:46.565Z,97591.81
2023-04-02T18:50:39.361Z,97593.78
2023-04-02T18:53:29.531Z,97604.41
2023-04-02T18:56:19.739Z,97609.03
2023-04-02T18:59:28.275Z,97620.66
2023-04-02T19:02:27.324Z,97620.84
2023-04-02T19:05:24.207Z,97621.81
2023-04-02T19:08:21.682Z,97621.16
2023-04-02T19:11:14.568Z,97627.63
2023-04-02T19:14:05.339Z,97626.00
2023-04-02T19:17:06.120Z,97632.31
2023-04-02T19:20:13.202Z,97639.41
2023-04-02T19:23:29.887Z,97634.28
2023-04-02T19:26:19.464Z,97632.78
2023-04-02T19:29:24.447Z,97638.41
2023-04-02T19:32:42.406Z,97630.63
2023-04-02T19:35:35.625Z,97643.91
2023-04-02T19:38:40.886Z,97649.38
2023-04-02T19:41:49.931Z,97641.75
2023-04-02T19:44:37.730Z,97642.56
2023-04-02T19:47:25.079Z,97653.34
2023-04-02T19:50:11.966Z,97653.50
2023-04-02T19:52:58.913Z,97663.47
2023-04-02T19:55:46.101Z,97657.47
2023-04-02T19:58:35.415Z,97665.44
2023-04-02T20:01:22.339Z,97673.72
2023-04-02T20:04:09.309Z,97671.06
2023-04-02T20:06:56.228Z,97674.72
2023-04-02T20:09:43.080Z,97671.25
2023-04-02T20:12:29.911Z,97680.34
2023-04-02T20:15:16.871Z,97686.66
2023-04-02T20:18:04.577Z,97692.94
2023-04-02T20:20:51.476Z,97689.66
2023-04-02T20:23:38.319Z,97692.44
2023-04-02T20:26:26.428Z,97701.41
2023-04-02T20:29:13.276Z,97707.72
2023-04-02T20:32:00.113Z,97721.97
2023-04-02T20:34:47.125Z,97717.63
2023-04-02T20:37:34.139Z,97721.47
2023-04-02T20:40:21.293Z,97723.25
2023-04-02T20:43:09.400Z,97736.69
2023-04-02T20:45:57.971Z,97731.56
2023-04-02T20:48:45.284Z,97736.03
2023-04-02T20:51:32.429Z,97740.66
2023-04-02T20:54:19.273Z,97750.44
2023-04-02T20:57:06.270Z,97746.16
2023-04-02T20:59:54.550Z,97751.59
2023-04-02T21:02:41.436Z,97758.91
2023-04-02T21:05:28.293Z,97764.34
2023-04-02T21:08:15.145Z,97762.69
2023-04-02T21:11:06.129Z,97761.03
2023-04-02T21:13:53.501Z,97772.63
2023-04-02T21:16:41.260Z,97770.97
2023-04-02T21:19:28.148Z,97771.13
2023-04-02T21:22:15.375Z,97773.91
2023-04-02T21:25:02.255Z,97778.56
2023-04-02T21:27:49.289Z,97775.91
2023-04-02T21:30:36.369Z,97776.22
2023-04-02T21:33:23.230Z,97776.38
2023-04-02T21:36:19.001Z,97776.53
2023-04-02T21:39:08.301Z,97778.38
2023-04-02T21:41:55.372Z,97775.84
2023-04-02T21:44:42.258Z,97780.34
2023-04-02T21:47:29.110Z,97778.81
2023-04-02T21:50:16.039Z,97778.00
2023-04-02T21:53:02.912Z,97780.81
2023-04-02T21:55:49.755Z,97783.47
2023-04-02T21:58:36.654Z,97775.69
2023-04-02T22:01:28.036Z,97781.13
2023-04-02T22:04:20.840Z,97782.13
2023-04-02T22:07:07.783Z,97784.09
2023-04-02T22:09:54.682Z,97790.38
2023-04-02T22:12:41.846Z,97793.22
2023-04-02T22:15:32.014Z,97784.56
2023-04-02T22:18:18.847Z,97788.03
2023-04-02T22:21:06.266Z,97795.34
2023-04-02T22:23:53.470Z,97796.31
2023-04-02T22:26:40.939Z,97799.09
2023-04-02T22:29:27.972Z,97798.25
2023-04-02T22:32:14.848Z,97799.22
2023-04-02T22:35:01.911Z,97798.56
2023-04-02T22:37:48.728Z,97806.53
2023-04-02T22:40:36.084Z,97805.00
2023-04-02T22:43:23.088Z,97800.69
2023-04-02T22:46:11.230Z,97801.69
2023-04-02T22:48:58.395Z,97799.19
2023-04-02T22:51:45.706Z,97799.34
2023-04-02T22:54:32.580Z,97802.00
2023-04-02T22:57:19.720Z,97804.78
2023-04-02T23:00:09.905Z,97803.13
2023-04-02T23:02:56.789Z,97804.13
2023-04-02T23:05:45.859Z,97810.56
2023-04-02T23:08:33.770Z,97808.91
2023-04-02T23:11:23.376Z,97811.03
2023-04-02T23:14:10.317Z,97825.94
2023-04-02T23:16:57.154Z,97819.00
2023-04-02T23:19:44.034Z,97819.13
2023-04-02T23:22:31.146Z,97814.00
2023-04-02T23:25:18.008Z,97819.47
2023-04-02T23:28:04.986Z,97817.78
2023-04-02T23:30:52.437Z,97813.47
2023-04-02T23:33:39.494Z,97813.63
2023-04-02T23:36:28.778Z,97806.66
2023-04-02T23:39:15.447Z,97805.81
2023-04-02T23:42:02.305Z,97801.66
2023-04-02T23:44:49.428Z,97801.00
2023-04-02T23:47:36.353Z,97803.63
2023-04-02T23:50:23.321Z,97800.31
2023-04-02T23:53:10.427Z,97804.94
2023-04-02T23:55:57.402Z,97811.06
2023-04-02T23:58:44.645Z,97808.56
